Time;durP1;ratioP1;P1;durP2;ratioP2;P2;SDS_P1;SDS_P2;PMS_P1;PMS_P2;Temp;Humidity;BMP_temperature;BMP_pressure;BME280_temperature;BME280_humidity;BME280_pressure;Samples;Min_cycle;Max_cycle;Signal;HPM_P1;HPM_P2
2023/03/22 00:00:14;;;;;;;0.10;0.10;;;;;;;10.93;68.88;100978.34;5026827;28;20503;-82
2023/03/22 00:02:40;;;;;;;0.20;0.20;;;;;;;10.93;69.25;100978.34;5030687;28;20067;-80
2023/03/22 00:05:07;;;;;;;0.10;0.10;;;;;;;10.85;69.44;100972.31;5026033;28;20268;-82
2023/03/22 00:07:33;;;;;;;0.10;0.10;;;;;;;10.84;69.31;100968.81;5030114;28;20230;-82
2023/03/22 00:09:59;;;;;;;0.10;0.10;;;;;;;10.80;69.41;100968.88;5033586;28;20069;-81
2023/03/22 00:12:25;;;;;;;0.10;0.10;;;;;;;10.80;69.42;100967.13;5026400;28;20036;-80
2023/03/22 00:14:52;;;;;;;0.10;0.10;;;;;;;10.68;69.82;100973.50;5028358;28;20041;-80
2023/03/22 00:17:18;;;;;;;2.90;1.27;;;;;;;10.74;69.89;100971.66;5030454;28;20045;-82
2023/03/22 00:19:45;;;;;;;0.10;0.10;;;;;;;10.75;69.60;100968.97;5033024;28;20069;-83
2023/03/22 00:22:13;;;;;;;0.10;0.10;;;;;;;10.77;69.63;100966.31;5022438;28;20800;-83
2023/03/22 00:24:39;;;;;;;0.10;0.10;;;;;;;10.75;69.53;100962.81;5030037;28;20100;-82
2023/03/22 00:27:05;;;;;;;0.10;0.10;;;;;;;10.75;69.47;100954.84;5032891;28;20103;-82
2023/03/22 00:29:31;;;;;;;0.10;0.10;;;;;;;10.72;69.75;100944.31;5041355;28;20025;-82
2023/03/22 00:31:58;;;;;;;0.10;0.10;;;;;;;10.66;69.58;100942.66;5050239;28;20513;-82
2023/03/22 00:34:25;;;;;;;0.10;0.10;;;;;;;10.68;69.77;100931.13;5028869;28;20403;-82
2023/03/22 00:36:55;;;;;;;0.10;0.10;;;;;;;10.65;69.86;100932.94;5046700;28;20056;-82
2023/03/22 00:39:21;;;;;;;0.10;0.10;;;;;;;10.70;69.78;100922.25;5033957;28;20044;-83
2023/03/22 00:41:47;;;;;;;0.10;0.10;;;;;;;10.71;69.95;100919.59;5042741;28;20151;-82
2023/03/22 00:44:13;;;;;;;0.10;0.10;;;;;;;10.72;69.79;100920.47;5035399;28;20478;-84
2023/03/22 00:46:39;;;;;;;0.10;0.10;;;;;;;10.73;69.64;100919.53;5032825;28;20137;-84
2023/03/22 00:49:05;;;;;;;0.10;0.10;;;;;;;10.78;69.83;100915.03;5046192;28;20075;-83
2023/03/22 00:51:33;;;;;;;0.17;0.17;;;;;;;10.73;69.86;100912.47;5023579;28;20033;-84
2023/03/22 00:54:00;;;;;;;0.03;0.03;;;;;;;10.77;69.61;100906.22;5045852;28;20087;-84
2023/03/22 00:56:27;;;;;;;0.20;0.20;;;;;;;10.78;69.89;100901.78;5033195;28;20064;-83
2023/03/22 00:58:54;;;;;;;0.10;0.10;;;;;;;10.80;69.80;100898.22;5029968;28;20072;-83
2023/03/22 01:01:20;;;;;;;0.10;0.10;;;;;;;10.80;69.69;100886.72;5027443;28;20049;-82
2023/03/22 01:03:49;;;;;;;0.10;0.10;;;;;;;10.85;69.84;100879.53;5031092;28;20044;-82
2023/03/22 01:06:16;;;;;;;0.10;0.10;;;;;;;10.86;69.38;100878.66;5029544;28;20172;-83
2023/03/22 01:08:42;;;;;;;0.10;0.10;;;;;;;10.84;69.43;100877.78;5030079;28;20465;-81
2023/03/22 01:11:09;;;;;;;0.10;0.10;;;;;;;10.89;69.26;100875.94;5036755;28;20033;-82
2023/03/22 01:13:36;;;;;;;0.10;0.10;;;;;;;10.86;69.65;100869.84;5033497;28;20033;-82
2023/03/22 01:16:04;;;;;;;0.10;0.10;;;;;;;10.86;69.25;100859.22;5032021;28;20033;-83
2023/03/22 01:18:30;;;;;;;0.10;0.10;;;;;;;10.90;69.25;100855.59;5036156;28;20037;-80
2023/03/22 01:20:57;;;;;;;0.00;0.00;;;;;;;10.90;69.04;100856.47;5038851;28;20775;-82
2023/03/22 01:23:23;;;;;;;0.10;0.10;;;;;;;10.93;69.25;100851.09;5038335;28;20049;-82
2023/03/22 01:25:49;;;;;;;0.20;0.20;;;;;;;10.90;69.19;100848.50;5041103;28;20160;-82
2023/03/22 01:28:16;;;;;;;0.30;0.30;;;;;;;10.95;69.20;100844.00;5046797;28;20071;-81
2023/03/22 01:30:42;;;;;;;0.45;0.45;;;;;;;10.92;69.03;100838.75;5053533;28;20037;-82
2023/03/22 01:33:08;;;;;;;0.10;0.10;;;;;;;10.92;68.95;100828.16;5047155;28;20052;-81
2023/03/22 01:35:35;;;;;;;0.40;0.40;;;;;;;10.94;69.32;100818.41;5035551;28;20034;-81
2023/03/22 01:38:02;;;;;;;0.10;0.10;;;;;;;10.90;68.93;100816.69;5039390;28;20044;-80
2023/03/22 01:40:29;;;;;;;0.45;0.45;;;;;;;10.93;69.04;100819.31;5038903;28;20029;-81
2023/03/22 01:42:55;;;;;;;0.10;0.10;;;;;;;10.91;68.71;100815.78;5037432;28;20033;-82
2023/03/22 01:48:08;;;;;;;0.10;0.10;;;;;;;10.95;68.91;100812.19;5075679;28;20493;-83
2023/03/22 01:50:37;;;;;;;0.10;0.10;;;;;;;10.96;68.77;100805.97;5063397;28;20021;-83
2023/03/22 01:53:06;;;;;;;0.10;0.10;;;;;;;10.96;68.70;100798.00;5047958;28;20148;-83
2023/03/22 01:55:33;;;;;;;0.20;0.20;;;;;;;10.91;68.81;100793.72;5058613;28;20032;-84
2023/03/22 01:58:01;;;;;;;0.10;0.10;;;;;;;10.93;69.12;100790.13;5058871;28;20470;-83
2023/03/22 02:00:28;;;;;;;0.10;0.10;;;;;;;10.93;68.95;100792.78;5043201;28;20029;-84
2023/03/22 02:02:54;;;;;;;0.10;0.10;;;;;;;10.92;68.86;100785.75;5041390;28;20029;-83
2023/03/22 02:05:21;;;;;;;0.10;0.10;;;;;;;10.89;69.11;100785.81;5044499;28;20080;-84
2023/03/22 02:07:49;;;;;;;0.10;0.10;;;;;;;10.89;69.27;100779.63;5041887;28;20101;-84
2023/03/22 02:10:21;;;;;;;0.10;0.10;;;;;;;10.93;69.46;100774.25;5042223;28;20727;-83
2023/03/22 02:21:18;;;;;;;0.10;0.10;;;;;;;11.08;69.21;100761.50;5100049;27;1177332;-82
2023/03/22 02:24:20;;;;;;;0.75;0.75;;;;;;;11.12;69.61;100752.59;5105947;28;20070;-82
2023/03/22 02:35:36;;;;;;;0.10;0.10;;;;;;;11.14;70.67;100753.41;5101380;27;20147;-81
2023/03/22 02:49:00;;;;;;;0.10;0.10;;;;;;;11.14;71.17;100742.81;5070586;28;20142;-84
2023/03/22 02:51:35;;;;;;;0.10;0.10;;;;;;;11.11;71.31;100732.28;5073904;28;20102;-83
2023/03/22 02:54:09;;;;;;;0.10;0.10;;;;;;;11.00;72.08;100746.69;5069660;28;20025;-80
2023/03/22 02:56:43;;;;;;;0.20;0.20;;;;;;;11.13;71.14;100736.66;5086247;28;20428;-81
2023/03/22 02:59:11;;;;;;;0.52;0.52;;;;;;;11.10;71.61;100731.44;5061391;28;20025;-82
2023/03/22 03:01:44;;;;;;;0.10;0.10;;;;;;;11.07;71.90;100731.50;5057494;28;20025;-82
2023/03/22 03:04:17;;;;;;;0.10;0.10;;;;;;;11.03;72.66;100727.19;5056434;28;20029;-83
2023/03/22 03:06:46;;;;;;;;;;;;;;;11.21;71.88;100722.34;5055128;28;20045;-82
2023/03/22 03:09:16;;;;;;;0.10;0.10;;;;;;;11.11;72.65;100733.16;5059676;28;20296;-81
2023/03/22 03:11:45;;;;;;;0.17;0.17;;;;;;;11.15;72.45;100731.28;5061133;28;20512;-83
2023/03/22 03:14:31;;;;;;;0.10;0.10;;;;;;;11.23;72.11;100721.38;5055278;28;20500;-80
2023/03/22 03:17:12;;;;;;;0.10;0.10;;;;;;;11.29;72.15;100725.66;5061991;28;20112;-82
2023/03/22 03:19:56;;;;;;;0.10;0.10;;;;;;;11.33;72.15;100720.25;5061892;28;20063;-82
2023/03/22 03:22:40;;;;;;;0.10;0.10;;;;;;;11.27;72.33;100724.84;5057423;28;20037;-81
2023/03/22 03:25:17;;;;;;;0.17;0.17;;;;;;;11.30;72.03;100707.06;5067015;28;20059;-82
2023/03/22 03:27:56;;;;;;;0.10;0.10;;;;;;;11.34;71.65;100707.88;5057862;28;20025;-83
2023/03/22 03:30:31;;;;;;;1.30;1.10;;;;;;;11.31;71.43;100703.50;5063648;28;20029;-81
2023/03/22 03:33:04;;;;;;;1.42;1.33;;;;;;;11.31;71.29;100703.50;5067348;28;20029;-83
2023/03/22 03:35:52;;;;;;;0.10;0.10;;;;;;;11.28;71.91;100702.72;5053210;28;20462;-83
2023/03/22 03:38:25;;;;;;;0.20;0.20;;;;;;;11.25;72.20;100703.66;5051959;28;20029;-82
2023/03/22 03:40:59;;;;;;;0.47;0.47;;;;;;;11.28;72.26;100702.72;5061346;28;20033;-83
2023/03/22 03:43:26;;;;;;;0.30;0.30;;;;;;;11.25;72.19;100702.78;5057326;28;20033;-82
2023/03/22 03:45:54;;;;;;;0.35;0.35;;;;;;;11.26;71.78;100705.38;5062357;28;20029;-80
2023/03/22 03:48:25;;;;;;;0.40;0.40;;;;;;;11.25;72.21;100708.97;5056314;28;20032;-82
2023/03/22 03:50:53;;;;;;;0.63;0.63;;;;;;;11.23;71.98;100715.22;5062920;28;20128;-82
2023/03/22 03:53:20;;;;;;;0.20;0.20;;;;;;;11.26;72.10;100716.00;5057723;28;20060;-82
2023/03/22 03:55:46;;;;;;;0.70;0.70;;;;;;;11.26;72.05;100702.72;5060239;28;20040;-81
2023/03/22 03:58:12;;;;;;;0.75;0.75;;;;;;;11.25;72.09;100708.97;5053422;28;20021;-82
2023/03/22 04:00:38;;;;;;;0.15;0.15;;;;;;;11.26;72.31;100700.06;5044191;28;20037;-81
2023/03/22 04:03:05;;;;;;;1.10;1.00;;;;;;;11.26;72.68;100704.53;5045355;28;20040;-80
2023/03/22 04:05:32;;;;;;;0.32;0.32;;;;;;;11.29;72.48;100699.13;5042424;28;20479;-82
2023/03/22 04:07:58;;;;;;;0.15;0.15;;;;;;;11.33;72.40;100699.03;5048985;28;20041;-82
2023/03/22 04:10:24;;;;;;;1.27;0.80;;;;;;;11.40;71.94;100701.50;5053122;28;20037;-84
2023/03/22 04:12:50;;;;;;;0.63;0.63;;;;;;;11.41;72.18;100690.84;5054604;28;20504;-83
2023/03/22 04:15:17;;;;;;;0.13;0.13;;;;;;;11.48;71.76;100691.59;5050205;28;20037;-84
2023/03/22 04:17:43;;;;;;;0.10;0.10;;;;;;;11.37;71.71;100701.59;5057210;28;20025;-82
2023/03/22 04:20:11;;;;;;;0.17;0.17;;;;;;;11.44;71.27;100688.13;5052371;28;20037;-84
2023/03/22 04:22:38;;;;;;;0.10;0.10;;;;;;;11.44;71.45;100698.75;5049748;28;20056;-83
2023/03/22 04:25:10;;;;;;;0.10;0.10;;;;;;;11.53;71.30;100692.34;5049372;28;20117;-83
2023/03/22 04:27:37;;;;;;;0.10;0.10;;;;;;;11.48;71.68;100688.94;5047145;28;20032;-85
2023/03/22 04:30:06;;;;;;;0.10;0.10;;;;;;;11.52;71.42;100684.41;5047829;28;20034;-84
2023/03/22 04:32:32;;;;;;;0.10;0.10;;;;;;;11.52;71.17;100679.97;5047306;28;20061;-82
2023/03/22 04:34:58;;;;;;;0.15;0.15;;;;;;;11.54;71.19;100683.47;5050749;28;20044;-82
2023/03/22 04:37:25;;;;;;;0.15;0.15;;;;;;;11.51;71.27;100675.56;5048101;28;20100;-83
2023/03/22 04:39:52;;;;;;;0.10;0.10;;;;;;;11.54;70.81;100666.66;5047596;28;20838;-83
2023/03/22 04:42:19;;;;;;;0.17;0.17;;;;;;;11.47;71.08;100671.28;5048748;28;20025;-85
2023/03/22 04:44:45;;;;;;;0.10;0.10;;;;;;;11.44;70.80;100671.34;5046050;28;20533;-82
2023/03/22 04:47:11;;;;;;;0.10;0.10;;;;;;;11.50;70.84;100673.81;5051671;28;20035;-83
2023/03/22 04:49:37;;;;;;;0.10;0.10;;;;;;;11.43;71.23;100665.16;5048526;28;20041;-82
2023/03/22 04:52:04;;;;;;;0.20;0.20;;;;;;;11.44;70.59;100658.97;5047132;28;20048;-83
2023/03/22 04:54:30;;;;;;;1.60;1.38;;;;;;;11.47;70.60;100663.31;5048582;28;20029;-84
2023/03/22 04:56:56;;;;;;;1.02;1.00;;;;;;;11.51;70.53;100661.44;5042734;28;20440;-83
2023/03/22 04:59:22;;;;;;;0.10;0.10;;;;;;;11.48;70.24;100660.59;5049536;28;20020;-84
2023/03/22 05:01:50;;;;;;;0.10;0.10;;;;;;;11.44;70.62;100655.41;5041648;28;20047;-84
2023/03/22 05:04:17;;;;;;;0.10;0.10;;;;;;;11.46;70.31;100669.53;5044475;28;20030;-82
2023/03/22 05:06:44;;;;;;;0.10;0.10;;;;;;;11.42;69.95;100667.88;5041546;28;20040;-83
2023/03/22 05:09:11;;;;;;;0.10;0.10;;;;;;;11.45;70.21;100667.78;5052809;28;20128;-82
2023/03/22 05:11:39;;;;;;;0.35;0.35;;;;;;;11.46;70.22;100667.75;5049562;28;20037;-82
2023/03/22 05:14:06;;;;;;;0.10;0.10;;;;;;;11.51;70.27;100654.34;5052173;28;20041;-84
2023/03/22 05:16:33;;;;;;;2.20;2.00;;;;;;;11.53;70.07;100649.88;5045831;28;20037;-83
2023/03/22 05:19:01;;;;;;;0.10;0.10;;;;;;;11.52;69.95;100656.09;5043133;28;20021;-83
2023/03/22 05:21:35;;;;;;;0.10;0.10;;;;;;;11.54;70.23;100648.97;5049075;28;20044;-84
2023/03/22 05:24:01;;;;;;;0.10;0.10;;;;;;;11.58;69.50;100649.75;5049937;28;20486;-83
2023/03/22 05:26:27;;;;;;;0.30;0.30;;;;;;;11.56;69.69;100649.78;5050767;28;20048;-82
2023/03/22 05:28:54;;;;;;;0.10;0.10;;;;;;;11.60;69.39;100643.50;5040876;28;20091;-83
2023/03/22 05:31:22;;;;;;;0.20;0.20;;;;;;;11.63;69.19;100639.88;5050678;28;20028;-84
2023/03/22 05:33:50;;;;;;;0.17;0.17;;;;;;;11.54;69.22;100638.38;5039121;28;20055;-82
2023/03/22 05:36:18;;;;;;;0.30;0.30;;;;;;;11.64;69.50;100634.53;5041948;28;20037;-81
2023/03/22 05:38:45;;;;;;;0.43;0.43;;;;;;;11.58;68.39;100639.16;5037657;28;20085;-82
2023/03/22 05:41:12;;;;;;;0.30;0.30;;;;;;;11.62;68.88;100633.69;5045730;28;20090;-82
2023/03/22 05:43:39;;;;;;;0.20;0.20;;;;;;;11.69;68.05;100628.22;5053810;28;20034;-82
2023/03/22 05:46:08;;;;;;;0.10;0.10;;;;;;;11.62;68.34;100638.16;5046338;28;20401;-82
2023/03/22 05:48:35;;;;;;;0.20;0.20;;;;;;;11.64;68.34;100631.88;5049638;28;20079;-81
2023/03/22 05:51:03;;;;;;;0.10;0.10;;;;;;;11.61;67.58;100637.28;5046659;28;20270;-81
2023/03/22 05:53:30;;;;;;;1.13;1.02;;;;;;;11.65;68.13;100623.00;5040460;28;20037;-82
2023/03/22 05:55:59;;;;;;;0.10;0.10;;;;;;;11.60;67.80;100622.28;5042552;28;20047;-81
2023/03/22 05:58:29;;;;;;;0.20;0.20;;;;;;;11.69;68.25;100623.78;5040322;28;20031;-80
2023/03/22 06:00:59;;;;;;;0.10;0.10;;;;;;;11.61;67.70;100624.03;5050633;28;20044;-82
2023/03/22 06:03:26;;;;;;;0.22;0.22;;;;;;;11.47;67.61;100619.06;5040972;28;20044;-81
2023/03/22 06:05:53;;;;;;;0.10;0.10;;;;;;;11.63;67.49;100619.50;5054435;28;20047;-83
2023/03/22 06:08:20;;;;;;;0.10;0.10;;;;;;;11.62;67.68;100624.88;5052607;28;20018;-83
2023/03/22 06:10:49;;;;;;;0.08;0.08;;;;;;;11.72;67.57;100622.84;5056711;28;20421;-84
2023/03/22 06:13:16;;;;;;;0.20;0.20;;;;;;;11.75;67.18;100636.00;5056881;28;20055;-83
2023/03/22 06:15:43;;;;;;;0.28;0.28;;;;;;;11.68;66.90;100632.66;5049457;28;20033;-81
2023/03/22 06:18:09;;;;;;;0.17;0.17;;;;;;;11.82;66.58;100632.28;5051889;28;20029;-81
2023/03/22 06:20:35;;;;;;;0.20;0.20;;;;;;;11.86;66.93;100633.91;5044141;28;20036;-82
2023/03/22 06:23:01;;;;;;;0.00;0.00;;;;;;;11.81;66.57;100627.88;5052711;28;20047;-84
2023/03/22 06:25:27;;;;;;;0.10;0.10;;;;;;;11.91;66.81;100631.13;5045673;28;20049;-81
2023/03/22 06:27:54;;;;;;;0.10;0.10;;;;;;;11.92;66.68;100628.44;5045293;28;20029;-82
2023/03/22 06:30:20;;;;;;;0.32;0.32;;;;;;;11.96;66.25;100623.94;5044978;28;20037;-83
2023/03/22 06:32:46;;;;;;;0.20;0.20;;;;;;;11.96;66.48;100622.16;5043059;28;20044;-84
2023/03/22 06:35:13;;;;;;;0.10;0.10;;;;;;;11.94;66.11;100626.59;5045908;28;20088;-84
2023/03/22 06:37:40;;;;;;;0.00;0.00;;;;;;;11.99;66.41;100626.50;5047799;28;20048;-82
2023/03/22 06:40:08;;;;;;;0.10;0.10;;;;;;;12.02;66.39;100630.88;5042379;28;20025;-82
2023/03/22 06:42:34;;;;;;;0.17;0.17;;;;;;;12.01;66.10;100618.50;5040462;28;20037;-83
2023/03/22 06:45:00;;;;;;;0.08;0.08;;;;;;;12.00;65.89;100622.06;5045248;28;20029;-85
2023/03/22 06:47:27;;;;;;;0.10;0.10;;;;;;;11.98;66.31;100630.09;5040061;28;20475;-84
2023/03/22 06:49:53;;;;;;;0.10;0.10;;;;;;;12.03;66.37;100622.84;5053188;28;20052;-83
2023/03/22 06:52:20;;;;;;;0.10;0.10;;;;;;;12.03;66.24;100619.34;5041490;28;20049;-83
2023/03/22 06:54:46;;;;;;;0.10;0.10;;;;;;;12.03;66.08;100616.69;5044938;28;20095;-85
2023/03/22 06:57:12;;;;;;;0.10;0.10;;;;;;;12.09;66.26;100624.47;5047903;28;20040;-84
2023/03/22 06:59:38;;;;;;;0.10;0.10;;;;;;;12.03;65.61;100624.66;5048774;28;20044;-84
2023/03/22 07:02:05;;;;;;;0.03;0.03;;;;;;;12.18;65.64;100616.19;5057730;28;20017;-81
2023/03/22 07:04:31;;;;;;;0.55;0.55;;;;;;;12.23;65.71;100632.88;5051735;28;20029;-81
2023/03/22 07:06:58;;;;;;;0.20;0.20;;;;;;;12.16;65.44;100633.09;5056427;28;20029;-82
2023/03/22 07:09:25;;;;;;;0.10;0.10;;;;;;;12.14;65.22;100627.84;5057054;28;20100;-79
2023/03/22 07:11:51;;;;;;;0.30;0.30;;;;;;;12.23;65.64;100629.34;5053344;28;20510;-80
2023/03/22 07:14:17;;;;;;;0.10;0.10;;;;;;;12.22;66.05;100622.28;5053095;28;20033;-81
2023/03/22 07:16:43;;;;;;;0.10;0.10;;;;;;;12.27;65.58;100618.59;5048035;28;20052;-81
2023/03/22 07:19:10;;;;;;;0.10;0.10;;;;;;;12.33;65.51;100619.31;5040725;28;20033;-81
2023/03/22 07:21:37;;;;;;;3.35;2.20;;;;;;;12.46;65.23;100618.88;5050682;28;20035;-79
2023/03/22 07:24:05;;;;;;;0.65;0.65;;;;;;;12.37;65.15;100623.59;5043563;28;20091;-81
2023/03/22 07:26:31;;;;;;;0.55;0.55;;;;;;;12.41;64.76;100614.63;5048059;28;20037;-81
2023/03/22 07:28:57;;;;;;;0.10;0.10;;;;;;;12.51;64.39;100623.16;5043606;28;20041;-81
2023/03/22 07:31:23;;;;;;;0.40;0.40;;;;;;;12.52;64.54;100620.47;5045030;28;20025;-81
2023/03/22 07:33:51;;;;;;;0.55;0.55;;;;;;;12.56;64.26;100627.44;5036992;28;20099;-82
2023/03/22 07:36:22;;;;;;;0.30;0.30;;;;;;;12.61;64.44;100620.19;5039236;28;20022;-79
2023/03/22 07:38:49;;;;;;;0.17;0.17;;;;;;;12.69;63.72;100611.09;5049778;28;20056;-80
2023/03/22 07:41:22;;;;;;;0.10;0.10;;;;;;;12.83;63.41;100608.84;5048414;28;20025;-82
2023/03/22 07:43:49;;;;;;;0.20;0.20;;;;;;;12.87;63.11;100604.28;5050073;28;20043;-81
2023/03/22 07:46:15;;;;;;;0.45;0.45;;;;;;;12.89;63.37;100611.28;5054760;28;20056;-80
2023/03/22 07:48:41;;;;;;;0.10;0.10;;;;;;;12.78;63.42;100622.31;5054272;28;20550;-82
2023/03/22 07:51:08;;;;;;;0.10;0.10;;;;;;;13.00;62.88;100620.72;5046898;28;20429;-82
2023/03/22 07:53:35;;;;;;;0.10;0.10;;;;;;;12.90;62.84;100621.00;5039544;28;20022;-83
2023/03/22 07:56:02;;;;;;;0.10;0.10;;;;;;;12.91;63.13;100630.72;5036732;28;20564;-81
2023/03/22 07:58:28;;;;;;;0.30;0.30;;;;;;;13.08;63.08;100630.19;5038927;28;20022;-80
2023/03/22 08:01:02;;;;;;;0.10;0.10;;;;;;;13.07;63.29;100628.44;5036763;28;20041;-82
2023/03/22 08:03:28;;;;;;;0.10;0.10;;;;;;;13.05;63.54;100627.59;5043114;28;20371;-84
2023/03/22 08:05:57;;;;;;;0.20;0.20;;;;;;;12.98;63.91;100620.75;5039878;28;20033;-83
2023/03/22 08:08:23;;;;;;;0.28;0.28;;;;;;;12.98;63.91;100611.91;5041951;28;20029;-83
2023/03/22 08:10:50;;;;;;;0.57;0.30;;;;;;;12.88;63.99;100632.63;5049259;28;20402;-83
2023/03/22 08:13:16;;;;;;;0.10;0.10;;;;;;;12.89;64.39;100624.59;5052412;28;20020;-81
2023/03/22 08:15:42;;;;;;;0.10;0.10;;;;;;;12.91;64.37;100613.88;5055892;28;20572;-82
2023/03/22 08:18:08;;;;;;;0.10;0.10;;;;;;;12.88;63.98;100624.66;5045719;28;20467;-81
2023/03/22 08:20:36;;;;;;;0.10;0.10;;;;;;;12.95;63.88;100621.72;5051632;28;20426;-82
2023/03/22 08:23:02;;;;;;;0.10;0.10;;;;;;;12.94;63.75;100621.78;5057270;28;20017;-83
2023/03/22 08:25:30;;;;;;;0.25;0.25;;;;;;;12.92;64.14;100629.81;5041690;28;20502;-82
2023/03/22 08:27:56;;;;;;;0.10;0.10;;;;;;;12.89;64.14;100629.06;5052656;28;20025;-83
2023/03/22 08:30:22;;;;;;;0.43;0.43;;;;;;;12.77;63.93;100625.00;5042285;28;20092;-83
2023/03/22 08:32:48;;;;;;;0.10;0.10;;;;;;;12.67;64.04;100628.88;5050354;28;20056;-84
2023/03/22 08:35:15;;;;;;;0.10;0.10;;;;;;;12.59;65.20;100631.78;5041471;28;20466;-83
2023/03/22 08:37:41;;;;;;;0.65;0.65;;;;;;;12.60;65.90;100641.50;5039522;28;20207;-79
2023/03/22 08:40:08;;;;;;;0.30;0.30;;;;;;;12.50;66.04;100638.25;5045407;28;20047;-77
2023/03/22 08:42:35;;;;;;;0.10;0.10;;;;;;;12.58;66.33;100630.91;5058566;28;20040;-81
2023/03/22 08:45:02;;;;;;;0.75;0.75;;;;;;;12.55;67.46;100640.78;5057947;28;20052;-81
2023/03/22 08:47:28;;;;;;;2.45;1.55;;;;;;;12.41;67.59;100623.47;5047876;28;20029;-84
2023/03/22 08:49:54;;;;;;;0.10;0.10;;;;;;;12.35;68.40;100622.78;5042064;28;20063;-84
2023/03/22 08:52:20;;;;;;;0.10;0.10;;;;;;;12.40;67.96;100626.16;5051158;28;20532;-83
2023/03/22 08:54:46;;;;;;;0.17;0.17;;;;;;;12.33;68.80;100624.63;5042437;28;20116;-83
2023/03/22 08:57:13;;;;;;;0.03;0.03;;;;;;;12.44;69.50;100630.47;5040076;28;20445;-84
2023/03/22 08:59:39;;;;;;;0.17;0.17;;;;;;;12.24;69.98;100626.63;5038803;28;20017;-83
2023/03/22 09:02:06;;;;;;;0.10;0.10;;;;;;;12.25;70.32;100612.44;5046844;28;20505;-83
2023/03/22 09:04:32;;;;;;;0.10;0.10;;;;;;;12.30;69.99;100615.81;5036994;28;20029;-85
2023/03/22 09:06:58;;;;;;;0.38;0.30;;;;;;;12.21;70.77;100617.91;5037353;28;20040;-84
2023/03/22 09:09:24;;;;;;;0.10;0.10;;;;;;;12.19;70.75;100612.63;5038010;28;20049;-85
2023/03/22 09:11:50;;;;;;;1.60;1.23;;;;;;;12.13;72.19;100628.75;5043921;28;20469;-83
2023/03/22 09:14:16;;;;;;;0.30;0.30;;;;;;;12.25;70.81;100620.41;5056587;28;20029;-85
2023/03/22 09:16:42;;;;;;;0.30;0.30;;;;;;;12.20;71.75;100610.84;5046073;28;20103;-85
2023/03/22 09:19:09;;;;;;;0.22;0.22;;;;;;;12.18;71.88;100621.50;5054867;28;20032;-82
2023/03/22 09:21:35;;;;;;;0.32;0.32;;;;;;;11.98;71.39;100628.28;5052252;28;20722;-83
2023/03/22 09:24:01;;;;;;;0.10;0.10;;;;;;;12.13;71.49;100618.13;5056591;28;20043;-84
2023/03/22 09:26:27;;;;;;;0.10;0.10;;;;;;;12.18;71.42;100616.19;5049306;28;20040;-82
2023/03/22 09:28:53;;;;;;;0.10;0.10;;;;;;;12.12;71.43;100616.38;5042049;28;20375;-81
2023/03/22 09:31:19;;;;;;;0.08;0.08;;;;;;;12.00;72.01;100628.25;5047321;28;20040;-81
2023/03/22 09:33:46;;;;;;;24.95;1.45;;;;;;;12.00;72.25;100611.44;5041599;28;20102;-82
2023/03/22 09:36:12;;;;;;;0.10;0.10;;;;;;;12.00;71.77;100612.34;5051971;28;20080;-81
2023/03/22 09:38:40;;;;;;;0.10;0.10;;;;;;;12.15;71.85;100611.00;5047887;28;20033;-81
2023/03/22 09:41:12;;;;;;;0.10;0.10;;;;;;;12.18;72.09;100608.22;5050734;28;20124;-83
2023/03/22 09:43:47;;;;;;;0.85;0.85;;;;;;;12.25;72.31;100612.44;5042357;28;20490;-82
2023/03/22 09:46:19;;;;;;;0.10;0.10;;;;;;;12.25;72.23;100620.41;5037761;28;20108;-84
2023/03/22 09:48:48;;;;;;;0.20;0.20;;;;;;;12.28;72.65;100609.69;5044402;28;20044;-83
2023/03/22 09:51:29;;;;;;;0.40;0.40;;;;;;;12.36;71.47;100608.59;5041484;28;20033;-81
2023/03/22 09:53:55;;;;;;;0.20;0.20;;;;;;;12.24;71.81;100604.53;5046712;28;20038;-82
2023/03/22 09:56:26;;;;;;;0.10;0.10;;;;;;;12.19;71.85;100612.63;5039073;28;20656;-82
2023/03/22 10:01:55;;;;;;;0.10;0.10;;;;;;;12.17;71.96;100619.78;5191702;27;20408;-81
2023/03/22 10:04:49;;;;;;;0.20;0.20;;;;;;;12.20;72.54;100614.38;5171424;27;20037;-85
2023/03/22 10:07:45;;;;;;;0.10;0.10;;;;;;;12.04;72.08;100615.75;5169119;27;20030;-83
2023/03/22 10:10:16;;;;;;;0.10;0.10;;;;;;;12.13;72.66;100628.75;5169588;27;20023;-84
2023/03/22 10:12:52;;;;;;;0.73;0.73;;;;;;;12.13;72.08;100634.91;5156735;27;20366;-85
2023/03/22 10:15:30;;;;;;;0.20;0.20;;;;;;;12.05;72.29;100621.03;5171104;27;20068;-83
2023/03/22 10:17:59;;;;;;;0.63;0.63;;;;;;;12.00;73.10;100608.78;5172326;27;20058;-84
2023/03/22 10:20:48;;;;;;;0.20;0.20;;;;;;;12.11;72.83;100630.56;5160790;27;20109;-84
2023/03/22 10:23:19;;;;;;;0.10;0.10;;;;;;;12.01;73.33;100629.97;5156766;27;20031;-83
2023/03/22 10:25:46;;;;;;;0.10;0.10;;;;;;;12.00;73.09;100624.72;5148349;27;20019;-84
2023/03/22 10:28:18;;;;;;;0.10;0.10;;;;;;;11.94;73.04;100610.69;5158003;27;20030;-86
2023/03/22 10:30:52;;;;;;;0.20;0.20;;;;;;;12.01;73.09;100623.81;5163319;27;20021;-85
2023/03/22 10:36:12;;;;;;;0.10;0.10;;;;;;;12.15;72.97;100605.69;5068437;28;20399;-82
2023/03/22 10:38:46;;;;;;;0.30;0.30;;;;;;;12.11;73.34;100593.41;5043654;28;20653;-83
2023/03/22 10:41:14;;;;;;;0.20;0.20;;;;;;;12.17;72.79;100590.56;5056247;28;20055;-84
2023/03/22 10:43:42;;;;;;;0.10;0.10;;;;;;;12.11;73.72;100590.75;5056628;28;20033;-84
2023/03/22 10:46:16;;;;;;;0.10;0.10;;;;;;;12.26;72.76;100582.31;5056583;28;20029;-82
2023/03/22 10:48:45;;;;;;;0.75;0.75;;;;;;;12.34;72.80;100576.75;5050254;28;20029;-81
2023/03/22 10:51:24;;;;;;;5.57;1.20;;;;;;;12.29;72.79;100582.22;5056780;28;20029;-82
2023/03/22 10:53:54;;;;;;;0.52;0.52;;;;;;;12.37;72.11;100594.38;5054487;28;20029;-82
2023/03/22 10:56:20;;;;;;;0.63;0.63;;;;;;;12.38;72.45;100582.84;5052821;28;20033;-82
2023/03/22 10:58:49;;;;;;;0.20;0.20;;;;;;;12.42;72.62;100587.13;5060261;28;20025;-81
2023/03/22 11:01:26;;;;;;;0.43;0.43;;;;;;;12.54;72.33;100586.75;5055243;28;20085;-82
2023/03/22 11:03:56;;;;;;;0.10;0.10;;;;;;;12.63;72.43;100574.94;5060260;28;20037;-82
2023/03/22 11:06:28;;;;;;;0.10;0.10;;;;;;;12.69;72.08;100579.19;5057860;28;20500;-79
2023/03/22 11:09:01;;;;;;;0.30;0.30;;;;;;;12.77;71.67;100575.38;5049989;28;20033;-81
2023/03/22 11:11:29;;;;;;;;;;;;;;;12.93;70.57;100589.03;5051829;28;20031;-78
2023/03/22 11:16:46;;;;;;;0.20;0.20;;;;;;;12.94;70.00;100589.88;5100164;27;20387;-82
2023/03/22 11:19:32;;;;;;;0.10;0.10;;;;;;;12.86;70.70;100586.59;5069005;28;20075;-82
2023/03/22 11:22:00;;;;;;;0.10;0.10;;;;;;;12.86;69.51;100602.53;5064366;28;20099;-82
2023/03/22 11:24:29;;;;;;;0.10;0.10;;;;;;;12.95;69.56;100608.44;5061734;28;20036;-82
2023/03/22 11:27:05;;;;;;;0.52;0.52;;;;;;;12.88;69.35;100600.72;5067432;28;20055;-83
2023/03/22 11:29:43;;;;;;;0.20;0.20;;;;;;;12.81;68.83;100616.00;5064903;28;20032;-78
2023/03/22 11:32:31;;;;;;;1.00;1.00;;;;;;;12.86;69.07;100618.50;5070511;28;20077;-81
2023/03/22 11:35:15;;;;;;;0.10;0.10;;;;;;;12.72;68.72;100629.59;5050620;28;20091;-82
2023/03/22 11:37:51;;;;;;;0.10;0.10;;;;;;;12.83;69.13;100638.09;5077897;28;20044;-78
2023/03/22 11:40:23;;;;;;;0.10;0.10;;;;;;;12.81;69.14;100636.41;5066588;28;20052;-80
2023/03/22 11:42:57;;;;;;;0.10;0.10;;;;;;;12.85;69.51;100630.09;5080095;28;20036;-85
2023/03/22 11:45:31;;;;;;;0.15;0.15;;;;;;;12.88;68.85;100632.63;5074606;28;20029;-84
2023/03/22 11:48:05;;;;;;;0.10;0.10;;;;;;;12.81;69.39;100610.69;5067663;28;20425;-84
2023/03/22 11:50:36;;;;;;;0.25;0.25;;;;;;;12.81;69.45;100634.63;5069803;28;20107;-84
2023/03/22 11:53:05;;;;;;;0.10;0.10;;;;;;;12.75;69.03;100629.50;5071179;28;20024;-84
2023/03/22 11:55:33;;;;;;;0.10;0.10;;;;;;;12.80;69.37;100619.59;5053446;28;20029;-84
2023/03/22 11:58:02;;;;;;;0.20;0.20;;;;;;;12.81;69.14;100617.78;5068457;28;20119;-84
2023/03/22 12:00:32;;;;;;;0.20;0.20;;;;;;;12.79;69.58;100628.47;5076823;28;20048;-83
2023/03/22 12:03:05;;;;;;;0.10;0.10;;;;;;;12.88;69.27;100622.84;5060204;28;20064;-83
2023/03/22 12:05:36;;;;;;;0.10;0.10;;;;;;;12.83;69.00;100619.47;5074561;28;20087;-84
2023/03/22 12:08:16;;;;;;;0.35;0.35;;;;;;;12.79;69.20;100623.16;5085695;28;20032;-85
2023/03/22 12:10:47;;;;;;;0.10;0.10;;;;;;;12.93;69.21;100617.38;5083053;28;20082;-86
2023/03/22 12:13:53;;;;;;;0.25;0.25;;;;;;;12.90;68.83;100626.34;5080721;28;20035;-86